sensor_id;sensor_type;location;lat;lon;timestamp;P1;durP1;ratioP1;P2;durP2;ratioP2
2874;SDS011;1445;52.600;13.328;2023-03-05T00:02:23;13.07;;;4.30;;
2874;SDS011;1445;52.600;13.328;2023-03-05T00:04:50;15.27;;;3.55;;
2874;SDS011;1445;52.600;13.328;2023-03-05T00:17:42;10.60;;;2.88;;
2874;SDS011;1445;52.600;13.328;2023-03-05T00:20:08;9.02;;;2.83;;
2874;SDS011;1445;52.600;13.328;2023-03-05T00:22:34;14.90;;;3.17;;
2874;SDS011;1445;52.600;13.328;2023-03-05T00:25:00;19.27;;;3.90;;
2874;SDS011;1445;52.600;13.328;2023-03-05T00:27:26;9.80;;;3.42;;
2874;SDS011;1445;52.600;13.328;2023-03-05T00:29:52;24.45;;;5.40;;
2874;SDS011;1445;52.600;13.328;2023-03-05T00:32:17;15.10;;;3.58;;
2874;SDS011;1445;52.600;13.328;2023-03-05T00:34:42;17.15;;;3.28;;
2874;SDS011;1445;52.600;13.328;2023-03-05T00:37:08;10.02;;;2.70;;
2874;SDS011;1445;52.600;13.328;2023-03-05T00:39:33;15.40;;;2.95;;
2874;SDS011;1445;52.600;13.328;2023-03-05T00:41:59;14.18;;;3.72;;
2874;SDS011;1445;52.600;13.328;2023-03-05T00:44:24;17.95;;;3.38;;
2874;SDS011;1445;52.600;13.328;2023-03-05T00:46:49;15.82;;;3.40;;
2874;SDS011;1445;52.600;13.328;2023-03-05T00:49:15;14.23;;;3.10;;
2874;SDS011;1445;52.600;13.328;2023-03-05T00:51:41;10.00;;;2.70;;
2874;SDS011;1445;52.600;13.328;2023-03-05T00:54:06;12.70;;;2.78;;
2874;SDS011;1445;52.600;13.328;2023-03-05T00:56:32;18.73;;;3.05;;
2874;SDS011;1445;52.600;13.328;2023-03-05T00:58:57;9.00;;;2.70;;
2874;SDS011;1445;52.600;13.328;2023-03-05T01:01:23;12.98;;;2.30;;
2874;SDS011;1445;52.600;13.328;2023-03-05T01:03:49;8.02;;;2.58;;
2874;SDS011;1445;52.600;13.328;2023-03-05T01:06:15;13.00;;;2.60;;
2874;SDS011;1445;52.600;13.328;2023-03-05T01:08:41;9.95;;;2.45;;
2874;SDS011;1445;52.600;13.328;2023-03-05T01:11:08;9.00;;;3.15;;
2874;SDS011;1445;52.600;13.328;2023-03-05T01:13:34;9.00;;;2.53;;
2874;SDS011;1445;52.600;13.328;2023-03-05T01:16:00;11.50;;;2.88;;
2874;SDS011;1445;52.600;13.328;2023-03-05T01:18:26;11.10;;;2.30;;
2874;SDS011;1445;52.600;13.328;2023-03-05T01:20:51;9.55;;;2.03;;
2874;SDS011;1445;52.600;13.328;2023-03-05T01:23:17;9.63;;;2.20;;
2874;SDS011;1445;52.600;13.328;2023-03-05T01:25:42;8.57;;;1.95;;
2874;SDS011;1445;52.600;13.328;2023-03-05T01:28:08;9.95;;;2.10;;
2874;SDS011;1445;52.600;13.328;2023-03-05T01:30:34;6.82;;;1.92;;
2874;SDS011;1445;52.600;13.328;2023-03-05T01:32:59;8.15;;;2.42;;
2874;SDS011;1445;52.600;13.328;2023-03-05T01:35:26;10.07;;;2.00;;
2874;SDS011;1445;52.600;13.328;2023-03-05T01:37:51;10.80;;;1.70;;
2874;SDS011;1445;52.600;13.328;2023-03-05T01:40:19;6.50;;;1.90;;
2874;SDS011;1445;52.600;13.328;2023-03-05T01:42:46;7.88;;;1.73;;
2874;SDS011;1445;52.600;13.328;2023-03-05T01:45:14;6.38;;;2.25;;
2874;SDS011;1445;52.600;13.328;2023-03-05T01:47:41;8.77;;;3.28;;
2874;SDS011;1445;52.600;13.328;2023-03-05T01:50:12;8.23;;;1.77;;
2874;SDS011;1445;52.600;13.328;2023-03-05T01:52:42;7.50;;;1.88;;
2874;SDS011;1445;52.600;13.328;2023-03-05T01:55:14;6.38;;;2.08;;
2874;SDS011;1445;52.600;13.328;2023-03-05T01:57:44;7.13;;;2.03;;
2874;SDS011;1445;52.600;13.328;2023-03-05T02:00:13;5.75;;;1.58;;
2874;SDS011;1445;52.600;13.328;2023-03-05T02:02:43;13.98;;;2.30;;
2874;SDS011;1445;52.600;13.328;2023-03-05T02:05:12;9.95;;;1.92;;
2874;SDS011;1445;52.600;13.328;2023-03-05T02:07:41;6.25;;;1.80;;
2874;SDS011;1445;52.600;13.328;2023-03-05T02:12:42;7.40;;;2.50;;
2874;SDS011;1445;52.600;13.328;2023-03-05T02:15:08;10.75;;;1.83;;
2874;SDS011;1445;52.600;13.328;2023-03-05T02:17:34;9.63;;;2.15;;
2874;SDS011;1445;52.600;13.328;2023-03-05T02:20:09;14.18;;;2.17;;
2874;SDS011;1445;52.600;13.328;2023-03-05T02:22:37;4.80;;;1.23;;
2874;SDS011;1445;52.600;13.328;2023-03-05T02:25:11;6.88;;;2.03;;
2874;SDS011;1445;52.600;13.328;2023-03-05T02:27:55;8.43;;;2.60;;
2874;SDS011;1445;52.600;13.328;2023-03-05T02:30:22;6.45;;;1.50;;
2874;SDS011;1445;52.600;13.328;2023-03-05T02:32:48;5.10;;;1.95;;
2874;SDS011;1445;52.600;13.328;2023-03-05T02:35:14;5.60;;;1.60;;
2874;SDS011;1445;52.600;13.328;2023-03-05T02:37:39;6.78;;;1.20;;
2874;SDS011;1445;52.600;13.328;2023-03-05T02:40:05;3.28;;;1.23;;
2874;SDS011;1445;52.600;13.328;2023-03-05T02:42:31;5.25;;;1.27;;
2874;SDS011;1445;52.600;13.328;2023-03-05T02:44:58;5.93;;;2.22;;
2874;SDS011;1445;52.600;13.328;2023-03-05T02:47:25;4.00;;;1.48;;
2874;SDS011;1445;52.600;13.328;2023-03-05T02:49:52;4.15;;;1.48;;
2874;SDS011;1445;52.600;13.328;2023-03-05T02:52:18;7.35;;;1.98;;
2874;SDS011;1445;52.600;13.328;2023-03-05T02:54:43;7.18;;;1.45;;
2874;SDS011;1445;52.600;13.328;2023-03-05T02:57:09;8.05;;;1.90;;
2874;SDS011;1445;52.600;13.328;2023-03-05T02:59:34;5.47;;;1.70;;
2874;SDS011;1445;52.600;13.328;2023-03-05T03:02:00;6.50;;;1.35;;
2874;SDS011;1445;52.600;13.328;2023-03-05T03:04:25;4.88;;;1.52;;
2874;SDS011;1445;52.600;13.328;2023-03-05T03:06:50;6.25;;;2.13;;
2874;SDS011;1445;52.600;13.328;2023-03-05T03:09:16;5.05;;;1.02;;
2874;SDS011;1445;52.600;13.328;2023-03-05T03:11:41;7.50;;;1.48;;
2874;SDS011;1445;52.600;13.328;2023-03-05T03:14:07;6.13;;;1.75;;
2874;SDS011;1445;52.600;13.328;2023-03-05T03:16:32;6.88;;;1.40;;
2874;SDS011;1445;52.600;13.328;2023-03-05T03:18:58;5.80;;;1.35;;
2874;SDS011;1445;52.600;13.328;2023-03-05T03:21:24;7.30;;;1.60;;
2874;SDS011;1445;52.600;13.328;2023-03-05T03:23:51;5.20;;;1.70;;
2874;SDS011;1445;52.600;13.328;2023-03-05T03:26:17;7.22;;;1.50;;
2874;SDS011;1445;52.600;13.328;2023-03-05T03:28:43;6.30;;;2.28;;
2874;SDS011;1445;52.600;13.328;2023-03-05T03:31:08;8.10;;;1.30;;
2874;SDS011;1445;52.600;13.328;2023-03-05T03:33:34;5.50;;;1.45;;
2874;SDS011;1445;52.600;13.328;2023-03-05T03:35:59;7.40;;;2.58;;
2874;SDS011;1445;52.600;13.328;2023-03-05T03:38:25;5.43;;;1.20;;
2874;SDS011;1445;52.600;13.328;2023-03-05T03:40:50;5.18;;;1.58;;
2874;SDS011;1445;52.600;13.328;2023-03-05T03:43:16;8.57;;;1.42;;
2874;SDS011;1445;52.600;13.328;2023-03-05T03:45:42;5.20;;;1.42;;
2874;SDS011;1445;52.600;13.328;2023-03-05T03:48:08;4.28;;;1.65;;
2874;SDS011;1445;52.600;13.328;2023-03-05T03:50:37;5.80;;;1.48;;
2874;SDS011;1445;52.600;13.328;2023-03-05T03:53:06;5.50;;;1.45;;
2874;SDS011;1445;52.600;13.328;2023-03-05T03:55:32;5.65;;;1.83;;
2874;SDS011;1445;52.600;13.328;2023-03-05T03:57:58;5.72;;;2.00;;
2874;SDS011;1445;52.600;13.328;2023-03-05T04:00:23;10.30;;;1.95;;
2874;SDS011;1445;52.600;13.328;2023-03-05T04:02:48;5.70;;;1.73;;
2874;SDS011;1445;52.600;13.328;2023-03-05T04:05:14;6.53;;;1.40;;
2874;SDS011;1445;52.600;13.328;2023-03-05T04:07:39;5.18;;;1.30;;
2874;SDS011;1445;52.600;13.328;2023-03-05T04:10:05;6.22;;;2.03;;
2874;SDS011;1445;52.600;13.328;2023-03-05T04:12:30;5.10;;;1.50;;
2874;SDS011;1445;52.600;13.328;2023-03-05T04:14:56;3.47;;;1.90;;
2874;SDS011;1445;52.600;13.328;2023-03-05T04:17:21;6.20;;;1.80;;
2874;SDS011;1445;52.600;13.328;2023-03-05T04:19:46;6.07;;;1.60;;
2874;SDS011;1445;52.600;13.328;2023-03-05T04:22:12;6.88;;;1.52;;
2874;SDS011;1445;52.600;13.328;2023-03-05T04:24:39;4.88;;;1.30;;
2874;SDS011;1445;52.600;13.328;2023-03-05T04:27:05;5.25;;;1.30;;
2874;SDS011;1445;52.600;13.328;2023-03-05T04:29:31;8.57;;;1.80;;
2874;SDS011;1445;52.600;13.328;2023-03-05T04:31:56;7.38;;;1.40;;
2874;SDS011;1445;52.600;13.328;2023-03-05T04:34:22;5.93;;;1.70;;
2874;SDS011;1445;52.600;13.328;2023-03-05T04:36:47;6.70;;;1.58;;
2874;SDS011;1445;52.600;13.328;2023-03-05T04:39:13;4.20;;;1.80;;
2874;SDS011;1445;52.600;13.328;2023-03-05T04:41:38;6.60;;;1.30;;
2874;SDS011;1445;52.600;13.328;2023-03-05T04:44:03;8.65;;;2.25;;
2874;SDS011;1445;52.600;13.328;2023-03-05T04:46:29;6.38;;;1.50;;
2874;SDS011;1445;52.600;13.328;2023-03-05T04:48:55;6.53;;;1.58;;
2874;SDS011;1445;52.600;13.328;2023-03-05T04:51:21;5.68;;;1.30;;
2874;SDS011;1445;52.600;13.328;2023-03-05T04:53:47;11.68;;;2.00;;
2874;SDS011;1445;52.600;13.328;2023-03-05T04:56:12;4.75;;;2.55;;
2874;SDS011;1445;52.600;13.328;2023-03-05T04:58:38;5.90;;;1.67;;
2874;SDS011;1445;52.600;13.328;2023-03-05T05:01:04;3.47;;;1.40;;
2874;SDS011;1445;52.600;13.328;2023-03-05T05:03:30;3.53;;;1.50;;
2874;SDS011;1445;52.600;13.328;2023-03-05T05:05:56;6.47;;;1.83;;
2874;SDS011;1445;52.600;13.328;2023-03-05T05:08:23;6.18;;;1.20;;
2874;SDS011;1445;52.600;13.328;2023-03-05T05:10:56;7.22;;;1.80;;
2874;SDS011;1445;52.600;13.328;2023-03-05T05:13:26;8.93;;;1.88;;
2874;SDS011;1445;52.600;13.328;2023-03-05T05:15:52;7.10;;;1.50;;
2874;SDS011;1445;52.600;13.328;2023-03-05T05:18:19;4.35;;;1.35;;
2874;SDS011;1445;52.600;13.328;2023-03-05T05:20:44;10.35;;;1.92;;
2874;SDS011;1445;52.600;13.328;2023-03-05T05:23:10;5.85;;;2.55;;
2874;SDS011;1445;52.600;13.328;2023-03-05T05:25:35;4.32;;;1.73;;
2874;SDS011;1445;52.600;13.328;2023-03-05T05:28:01;6.70;;;1.25;;
2874;SDS011;1445;52.600;13.328;2023-03-05T05:30:26;4.90;;;1.77;;
2874;SDS011;1445;52.600;13.328;2023-03-05T05:32:52;10.30;;;3.45;;
2874;SDS011;1445;52.600;13.328;2023-03-05T05:35:17;7.88;;;2.08;;
2874;SDS011;1445;52.600;13.328;2023-03-05T05:37:42;5.43;;;1.55;;
2874;SDS011;1445;52.600;13.328;2023-03-05T05:40:08;7.68;;;1.38;;
2874;SDS011;1445;52.600;13.328;2023-03-05T05:42:34;7.63;;;1.30;;
2874;SDS011;1445;52.600;13.328;2023-03-05T05:44:59;6.13;;;1.38;;
2874;SDS011;1445;52.600;13.328;2023-03-05T05:47:27;5.60;;;1.42;;
2874;SDS011;1445;52.600;13.328;2023-03-05T05:49:53;6.57;;;1.40;;
2874;SDS011;1445;52.600;13.328;2023-03-05T05:52:20;7.03;;;1.92;;
2874;SDS011;1445;52.600;13.328;2023-03-05T05:54:46;6.70;;;1.42;;
2874;SDS011;1445;52.600;13.328;2023-03-05T05:57:11;5.60;;;1.60;;
2874;SDS011;1445;52.600;13.328;2023-03-05T05:59:37;7.78;;;2.20;;
2874;SDS011;1445;52.600;13.328;2023-03-05T06:02:03;6.43;;;1.48;;
2874;SDS011;1445;52.600;13.328;2023-03-05T06:04:29;7.22;;;1.60;;
2874;SDS011;1445;52.600;13.328;2023-03-05T06:06:54;9.18;;;1.73;;
2874;SDS011;1445;52.600;13.328;2023-03-05T06:09:20;7.88;;;1.45;;
2874;SDS011;1445;52.600;13.328;2023-03-05T06:11:45;9.60;;;1.70;;
2874;SDS011;1445;52.600;13.328;2023-03-05T06:14:11;8.43;;;2.13;;
2874;SDS011;1445;52.600;13.328;2023-03-05T06:16:37;7.45;;;1.67;;
2874;SDS011;1445;52.600;13.328;2023-03-05T06:19:02;7.47;;;1.65;;
2874;SDS011;1445;52.600;13.328;2023-03-05T06:21:28;7.03;;;1.40;;
2874;SDS011;1445;52.600;13.328;2023-03-05T06:23:55;4.32;;;1.25;;
2874;SDS011;1445;52.600;13.328;2023-03-05T06:26:22;5.97;;;1.42;;
2874;SDS011;1445;52.600;13.328;2023-03-05T06:28:49;12.65;;;3.55;;
2874;SDS011;1445;52.600;13.328;2023-03-05T06:31:18;6.75;;;1.90;;
2874;SDS011;1445;52.600;13.328;2023-03-05T06:33:53;8.57;;;2.25;;
2874;SDS011;1445;52.600;13.328;2023-03-05T06:36:21;4.53;;;1.90;;
2874;SDS011;1445;52.600;13.328;2023-03-05T06:38:48;4.20;;;1.35;;
2874;SDS011;1445;52.600;13.328;2023-03-05T06:41:15;8.48;;;1.73;;
2874;SDS011;1445;52.600;13.328;2023-03-05T06:43:43;4.95;;;1.50;;
2874;SDS011;1445;52.600;13.328;2023-03-05T06:46:11;5.20;;;1.85;;
2874;SDS011;1445;52.600;13.328;2023-03-05T06:48:48;8.93;;;1.52;;
2874;SDS011;1445;52.600;13.328;2023-03-05T06:51:15;6.70;;;1.40;;
2874;SDS011;1445;52.600;13.328;2023-03-05T06:53:46;7.22;;;1.60;;
2874;SDS011;1445;52.600;13.328;2023-03-05T06:56:12;5.45;;;1.45;;
2874;SDS011;1445;52.600;13.328;2023-03-05T06:58:40;6.95;;;1.58;;
2874;SDS011;1445;52.600;13.328;2023-03-05T07:01:07;9.75;;;2.35;;
2874;SDS011;1445;52.600;13.328;2023-03-05T07:03:33;7.60;;;1.65;;
2874;SDS011;1445;52.600;13.328;2023-03-05T07:06:07;6.13;;;1.58;;
2874;SDS011;1445;52.600;13.328;2023-03-05T07:08:35;4.22;;;1.15;;
2874;SDS011;1445;52.600;13.328;2023-03-05T07:11:01;7.38;;;2.13;;
2874;SDS011;1445;52.600;13.328;2023-03-05T07:13:27;3.35;;;1.38;;
2874;SDS011;1445;52.600;13.328;2023-03-05T07:15:53;4.00;;;1.48;;
2874;SDS011;1445;52.600;13.328;2023-03-05T07:18:19;9.05;;;1.58;;
2874;SDS011;1445;52.600;13.328;2023-03-05T07:20:44;4.20;;;1.55;;
2874;SDS011;1445;52.600;13.328;2023-03-05T07:23:10;6.82;;;2.03;;
2874;SDS011;1445;52.600;13.328;2023-03-05T07:25:36;4.65;;;1.52;;
2874;SDS011;1445;52.600;13.328;2023-03-05T07:28:02;3.67;;;1.20;;
2874;SDS011;1445;52.600;13.328;2023-03-05T07:30:29;3.83;;;1.20;;
2874;SDS011;1445;52.600;13.328;2023-03-05T07:32:55;7.82;;;2.33;;
2874;SDS011;1445;52.600;13.328;2023-03-05T07:35:20;4.28;;;1.55;;
2874;SDS011;1445;52.600;13.328;2023-03-05T07:37:46;5.05;;;1.27;;
2874;SDS011;1445;52.600;13.328;2023-03-05T07:40:11;3.10;;;1.20;;
2874;SDS011;1445;52.600;13.328;2023-03-05T07:42:36;5.43;;;1.40;;
2874;SDS011;1445;52.600;13.328;2023-03-05T07:45:02;2.47;;;0.98;;
2874;SDS011;1445;52.600;13.328;2023-03-05T07:47:27;4.28;;;1.10;;
2874;SDS011;1445;52.600;13.328;2023-03-05T07:49:54;5.07;;;1.30;;
2874;SDS011;1445;52.600;13.328;2023-03-05T07:52:20;8.15;;;1.40;;
2874;SDS011;1445;52.600;13.328;2023-03-05T07:54:45;5.93;;;1.20;;
2874;SDS011;1445;52.600;13.328;2023-03-05T07:57:11;5.57;;;1.45;;
2874;SDS011;1445;52.600;13.328;2023-03-05T07:59:37;4.55;;;1.25;;
2874;SDS011;1445;52.600;13.328;2023-03-05T08:02:03;4.93;;;1.30;;
2874;SDS011;1445;52.600;13.328;2023-03-05T08:04:29;4.63;;;1.40;;
2874;SDS011;1445;52.600;13.328;2023-03-05T08:06:56;5.55;;;1.45;;
2874;SDS011;1445;52.600;13.328;2023-03-05T08:09:22;4.45;;;1.30;;
2874;SDS011;1445;52.600;13.328;2023-03-05T08:11:47;5.32;;;1.50;;
2874;SDS011;1445;52.600;13.328;2023-03-05T08:14:13;3.33;;;1.75;;
2874;SDS011;1445;52.600;13.328;2023-03-05T08:16:38;4.63;;;1.40;;
2874;SDS011;1445;52.600;13.328;2023-03-05T08:19:04;5.57;;;1.30;;
2874;SDS011;1445;52.600;13.328;2023-03-05T08:21:31;4.13;;;1.33;;
2874;SDS011;1445;52.600;13.328;2023-03-05T08:23:59;4.75;;;1.40;;
2874;SDS011;1445;52.600;13.328;2023-03-05T08:26:26;3.70;;;1.13;;
2874;SDS011;1445;52.600;13.328;2023-03-05T08:28:53;4.53;;;1.40;;
2874;SDS011;1445;52.600;13.328;2023-03-05T08:31:19;4.07;;;1.50;;
2874;SDS011;1445;52.600;13.328;2023-03-05T08:33:46;3.72;;;1.40;;
2874;SDS011;1445;52.600;13.328;2023-03-05T08:36:12;9.27;;;1.63;;
2874;SDS011;1445;52.600;13.328;2023-03-05T08:38:38;6.03;;;1.13;;
2874;SDS011;1445;52.600;13.328;2023-03-05T08:41:04;4.53;;;1.33;;
2874;SDS011;1445;52.600;13.328;2023-03-05T08:43:30;3.70;;;1.00;;
2874;SDS011;1445;52.600;13.328;2023-03-05T08:45:58;3.85;;;1.35;;
2874;SDS011;1445;52.600;13.328;2023-03-05T08:48:24;5.68;;;1.20;;
2874;SDS011;1445;52.600;13.328;2023-03-05T08:50:50;3.60;;;1.10;;
2874;SDS011;1445;52.600;13.328;2023-03-05T08:53:15;2.35;;;1.00;;
2874;SDS011;1445;52.600;13.328;2023-03-05T08:55:41;5.47;;;0.95;;
2874;SDS011;1445;52.600;13.328;2023-03-05T08:58:07;6.43;;;1.45;;
2874;SDS011;1445;52.600;13.328;2023-03-05T09:00:32;5.00;;;1.27;;
2874;SDS011;1445;52.600;13.328;2023-03-05T09:02:58;5.80;;;1.30;;
2874;SDS011;1445;52.600;13.328;2023-03-05T09:05:23;2.78;;;1.00;;
2874;SDS011;1445;52.600;13.328;2023-03-05T09:07:48;2.05;;;0.90;;
2874;SDS011;1445;52.600;13.328;2023-03-05T09:10:14;3.33;;;0.88;;
2874;SDS011;1445;52.600;13.328;2023-03-05T09:12:42;2.88;;;1.13;;
2874;SDS011;1445;52.600;13.328;2023-03-05T09:15:08;5.18;;;1.20;;
2874;SDS011;1445;52.600;13.328;2023-03-05T09:17:35;4.65;;;1.08;;
2874;SDS011;1445;52.600;13.328;2023-03-05T09:20:02;3.97;;;1.20;;
2874;SDS011;1445;52.600;13.328;2023-03-05T09:22:29;3.95;;;1.20;;
2874;SDS011;1445;52.600;13.328;2023-03-05T09:24:55;3.47;;;1.08;;
2874;SDS011;1445;52.600;13.328;2023-03-05T09:27:20;4.22;;;1.30;;
2874;SDS011;1445;52.600;13.328;2023-03-05T09:29:45;3.95;;;0.93;;
2874;SDS011;1445;52.600;13.328;2023-03-05T09:32:12;6.10;;;1.77;;
2874;SDS011;1445;52.600;13.328;2023-03-05T09:34:37;3.78;;;1.20;;
2874;SDS011;1445;52.600;13.328;2023-03-05T09:37:02;4.82;;;1.10;;
2874;SDS011;1445;52.600;13.328;2023-03-05T09:39:28;6.43;;;1.38;;
2874;SDS011;1445;52.600;13.328;2023-03-05T09:42:03;4.25;;;1.05;;
2874;SDS011;1445;52.600;13.328;2023-03-05T09:44:35;4.60;;;2.30;;
2874;SDS011;1445;52.600;13.328;2023-03-05T09:47:13;2.60;;;1.13;;
2874;SDS011;1445;52.600;13.328;2023-03-05T09:52:41;4.32;;;1.30;;
2874;SDS011;1445;52.600;13.328;2023-03-05T09:55:54;3.60;;;1.30;;
2874;SDS011;1445;52.600;13.328;2023-03-05T09:58:06;2.77;;;1.00;;
2874;SDS011;1445;52.600;13.328;2023-03-05T10:00:47;4.07;;;1.10;;
2874;SDS011;1445;52.600;13.328;2023-03-05T10:03:24;3.88;;;1.35;;
2874;SDS011;1445;52.600;13.328;2023-03-05T10:12:04;5.32;;;2.00;;
2874;SDS011;1445;52.600;13.328;2023-03-05T10:14:37;6.03;;;1.50;;
2874;SDS011;1445;52.600;13.328;2023-03-05T10:37:07;3.88;;;1.52;;
2874;SDS011;1445;52.600;13.328;2023-03-05T10:42:53;2.88;;;1.13;;
2874;SDS011;1445;52.600;13.328;2023-03-05T10:45:30;8.98;;;2.03;;
2874;SDS011;1445;52.600;13.328;2023-03-05T10:50:37;5.47;;;1.33;;
2874;SDS011;1445;52.600;13.328;2023-03-05T10:53:23;6.10;;;1.50;;
2874;SDS011;1445;52.600;13.328;2023-03-05T10:55:52;2.92;;;1.17;;
2874;SDS011;1445;52.600;13.328;2023-03-05T10:58:20;3.88;;;1.65;;
2874;SDS011;1445;52.600;13.328;2023-03-05T11:01:18;4.97;;;1.70;;
2874;SDS011;1445;52.600;13.328;2023-03-05T11:03:52;3.83;;;1.20;;
2874;SDS011;1445;52.600;13.328;2023-03-05T11:09:17;4.43;;;1.65;;
2874;SDS011;1445;52.600;13.328;2023-03-05T11:14:45;6.45;;;1.60;;
2874;SDS011;1445;52.600;13.328;2023-03-05T11:25:27;4.35;;;1.30;;
2874;SDS011;1445;52.600;13.328;2023-03-05T11:27:54;5.55;;;2.10;;
2874;SDS011;1445;52.600;13.328;2023-03-05T11:30:35;6.63;;;1.85;;
2874;SDS011;1445;52.600;13.328;2023-03-05T11:33:20;4.05;;;1.45;;
2874;SDS011;1445;52.600;13.328;2023-03-05T11:35:48;4.45;;;1.90;;
2874;SDS011;1445;52.600;13.328;2023-03-05T11:38:16;4.13;;;1.70;;
2874;SDS011;1445;52.600;13.328;2023-03-05T11:40:50;5.88;;;1.73;;
2874;SDS011;1445;52.600;13.328;2023-03-05T11:43:17;4.10;;;1.40;;
2874;SDS011;1445;52.600;13.328;2023-03-05T11:45:44;5.97;;;1.30;;
2874;SDS011;1445;52.600;13.328;2023-03-05T11:48:20;2.58;;;0.98;;
2874;SDS011;1445;52.600;13.328;2023-03-05T11:51:14;6.10;;;1.20;;
2874;SDS011;1445;52.600;13.328;2023-03-05T11:53:44;3.63;;;1.02;;
2874;SDS011;1445;52.600;13.328;2023-03-05T11:58:53;2.03;;;1.20;;
2874;SDS011;1445;52.600;13.328;2023-03-05T12:01:26;4.60;;;1.42;;
2874;SDS011;1445;52.600;13.328;2023-03-05T12:03:55;5.63;;;2.30;;
2874;SDS011;1445;52.600;13.328;2023-03-05T12:14:40;4.03;;;1.42;;
2874;SDS011;1445;52.600;13.328;2023-03-05T12:17:18;2.63;;;1.40;;
2874;SDS011;1445;52.600;13.328;2023-03-05T12:20:05;6.30;;;1.58;;
2874;SDS011;1445;52.600;13.328;2023-03-05T12:22:39;5.15;;;2.35;;
2874;SDS011;1445;52.600;13.328;2023-03-05T12:27:49;4.32;;;1.55;;
2874;SDS011;1445;52.600;13.328;2023-03-05T12:33:00;5.22;;;1.73;;
2874;SDS011;1445;52.600;13.328;2023-03-05T12:35:28;3.85;;;1.50;;
2874;SDS011;1445;52.600;13.328;2023-03-05T12:38:00;3.53;;;1.30;;
2874;SDS011;1445;52.600;13.328;2023-03-05T12:40:28;5.65;;;1.60;;
2874;SDS011;1445;52.600;13.328;2023-03-05T12:45:22;3.45;;;1.50;;
2874;SDS011;1445;52.600;13.328;2023-03-05T12:55:21;8.38;;;1.70;;
2874;SDS011;1445;52.600;13.328;2023-03-05T12:57:48;2.45;;;1.27;;
2874;SDS011;1445;52.600;13.328;2023-03-05T13:00:24;2.92;;;1.45;;
2874;SDS011;1445;52.600;13.328;2023-03-05T13:02:57;2.47;;;1.20;;
2874;SDS011;1445;52.600;13.328;2023-03-05T13:05:30;3.05;;;1.10;;
2874;SDS011;1445;52.600;13.328;2023-03-05T13:08:23;1.95;;;1.17;;
2874;SDS011;1445;52.600;13.328;2023-03-05T13:13:31;2.45;;;0.80;;
2874;SDS011;1445;52.600;13.328;2023-03-05T13:16:00;2.50;;;0.90;;
2874;SDS011;1445;52.600;13.328;2023-03-05T13:18:27;2.97;;;0.90;;
2874;SDS011;1445;52.600;13.328;2023-03-05T13:23:30;3.30;;;1.40;;
2874;SDS011;1445;52.600;13.328;2023-03-05T13:28:36;2.08;;;1.02;;
2874;SDS011;1445;52.600;13.328;2023-03-05T13:31:10;3.47;;;1.08;;
2874;SDS011;1445;52.600;13.328;2023-03-05T13:33:47;3.67;;;1.42;;
2874;SDS011;1445;52.600;13.328;2023-03-05T13:36:17;4.68;;;1.25;;
2874;SDS011;1445;52.600;13.328;2023-03-05T13:38:43;2.20;;;1.20;;
2874;SDS011;1445;52.600;13.328;2023-03-05T13:46:44;3.05;;;1.00;;
2874;SDS011;1445;52.600;13.328;2023-03-05T13:49:23;1.70;;;0.80;;
2874;SDS011;1445;52.600;13.328;2023-03-05T13:51:54;2.53;;;0.80;;
2874;SDS011;1445;52.600;13.328;2023-03-05T13:54:21;1.55;;;0.80;;
2874;SDS011;1445;52.600;13.328;2023-03-05T13:59:36;3.17;;;0.85;;
2874;SDS011;1445;52.600;13.328;2023-03-05T14:02:24;2.90;;;0.90;;
2874;SDS011;1445;52.600;13.328;2023-03-05T14:04:48;3.25;;;1.10;;
2874;SDS011;1445;52.600;13.328;2023-03-05T14:07:28;3.75;;;1.30;;
2874;SDS011;1445;52.600;13.328;2023-03-05T14:09:57;3.13;;;1.20;;
2874;SDS011;1445;52.600;13.328;2023-03-05T14:14:51;3.35;;;1.15;;
2874;SDS011;1445;52.600;13.328;2023-03-05T14:17:21;7.38;;;0.85;;
2874;SDS011;1445;52.600;13.328;2023-03-05T14:19:49;2.83;;;0.90;;
2874;SDS011;1445;52.600;13.328;2023-03-05T14:22:31;2.58;;;1.00;;
2874;SDS011;1445;52.600;13.328;2023-03-05T14:24:59;2.58;;;0.70;;
2874;SDS011;1445;52.600;13.328;2023-03-05T14:27:25;1.63;;;0.70;;
2874;SDS011;1445;52.600;13.328;2023-03-05T14:29:55;2.78;;;0.85;;
2874;SDS011;1445;52.600;13.328;2023-03-05T14:32:28;2.53;;;0.80;;
2874;SDS011;1445;52.600;13.328;2023-03-05T14:34:59;3.72;;;0.90;;
2874;SDS011;1445;52.600;13.328;2023-03-05T14:37:35;3.20;;;1.00;;
2874;SDS011;1445;52.600;13.328;2023-03-05T14:40:06;2.30;;;0.80;;
2874;SDS011;1445;52.600;13.328;2023-03-05T14:45:20;3.08;;;0.82;;
2874;SDS011;1445;52.600;13.328;2023-03-05T14:50:23;2.75;;;0.70;;
2874;SDS011;1445;52.600;13.328;2023-03-05T14:52:58;2.05;;;0.70;;
2874;SDS011;1445;52.600;13.328;2023-03-05T14:55:31;4.40;;;0.85;;
2874;SDS011;1445;52.600;13.328;2023-03-05T14:57:59;2.72;;;0.80;;
2874;SDS011;1445;52.600;13.328;2023-03-05T15:00:28;2.50;;;1.08;;
2874;SDS011;1445;52.600;13.328;2023-03-05T15:02:54;4.43;;;0.90;;
2874;SDS011;1445;52.600;13.328;2023-03-05T15:05:22;1.55;;;0.80;;
2874;SDS011;1445;52.600;13.328;2023-03-05T15:07:48;2.58;;;1.00;;
2874;SDS011;1445;52.600;13.328;2023-03-05T15:10:19;2.50;;;0.90;;
2874;SDS011;1445;52.600;13.328;2023-03-05T15:12:47;3.00;;;0.85;;
2874;SDS011;1445;52.600;13.328;2023-03-05T15:15:14;3.00;;;0.90;;
2874;SDS011;1445;52.600;13.328;2023-03-05T15:17:41;5.10;;;1.00;;
2874;SDS011;1445;52.600;13.328;2023-03-05T15:20:13;4.55;;;1.48;;
2874;SDS011;1445;52.600;13.328;2023-03-05T15:22:41;6.18;;;1.30;;
2874;SDS011;1445;52.600;13.328;2023-03-05T15:25:07;2.88;;;1.10;;
2874;SDS011;1445;52.600;13.328;2023-03-05T15:27:33;2.20;;;1.05;;
2874;SDS011;1445;52.600;13.328;2023-03-05T15:29:58;2.58;;;0.90;;
2874;SDS011;1445;52.600;13.328;2023-03-05T15:32:27;4.68;;;1.10;;
2874;SDS011;1445;52.600;13.328;2023-03-05T15:34:55;3.75;;;1.30;;
2874;SDS011;1445;52.600;13.328;2023-03-05T15:37:22;2.53;;;1.10;;
2874;SDS011;1445;52.600;13.328;2023-03-05T15:39:47;2.00;;;0.95;;
2874;SDS011;1445;52.600;13.328;2023-03-05T15:42:13;5.05;;;1.20;;
2874;SDS011;1445;52.600;13.328;2023-03-05T15:44:38;4.53;;;1.10;;
2874;SDS011;1445;52.600;13.328;2023-03-05T15:47:04;1.90;;;1.10;;
2874;SDS011;1445;52.600;13.328;2023-03-05T15:49:30;3.17;;;1.00;;
2874;SDS011;1445;52.600;13.328;2023-03-05T15:51:56;3.97;;;1.20;;
2874;SDS011;1445;52.600;13.328;2023-03-05T15:54:22;4.03;;;0.90;;
2874;SDS011;1445;52.600;13.328;2023-03-05T15:56:47;2.97;;;1.10;;
2874;SDS011;1445;52.600;13.328;2023-03-05T15:59:13;4.28;;;1.15;;
2874;SDS011;1445;52.600;13.328;2023-03-05T16:01:38;3.85;;;1.27;;
2874;SDS011;1445;52.600;13.328;2023-03-05T16:04:08;3.13;;;1.73;;
2874;SDS011;1445;52.600;13.328;2023-03-05T16:06:34;3.03;;;1.80;;
2874;SDS011;1445;52.600;13.328;2023-03-05T16:09:00;4.85;;;1.13;;
2874;SDS011;1445;52.600;13.328;2023-03-05T16:11:28;2.78;;;1.10;;
2874;SDS011;1445;52.600;13.328;2023-03-05T16:13:56;2.90;;;1.13;;
2874;SDS011;1445;52.600;13.328;2023-03-05T16:16:24;3.97;;;1.30;;
2874;SDS011;1445;52.600;13.328;2023-03-05T16:18:50;7.05;;;2.75;;
2874;SDS011;1445;52.600;13.328;2023-03-05T16:21:17;3.20;;;1.10;;
2874;SDS011;1445;52.600;13.328;2023-03-05T16:23:43;5.07;;;1.75;;
2874;SDS011;1445;52.600;13.328;2023-03-05T16:26:08;2.65;;;1.70;;
2874;SDS011;1445;52.600;13.328;2023-03-05T16:28:34;6.38;;;1.73;;
2874;SDS011;1445;52.600;13.328;2023-03-05T16:31:00;2.95;;;1.30;;
2874;SDS011;1445;52.600;13.328;2023-03-05T16:33:25;3.13;;;1.40;;
2874;SDS011;1445;52.600;13.328;2023-03-05T16:38:56;2.50;;;1.50;;
2874;SDS011;1445;52.600;13.328;2023-03-05T16:41:22;2.88;;;1.40;;
2874;SDS011;1445;52.600;13.328;2023-03-05T16:43:49;3.88;;;1.70;;
2874;SDS011;1445;52.600;13.328;2023-03-05T16:46:17;8.52;;;1.65;;
2874;SDS011;1445;52.600;13.328;2023-03-05T16:48:44;2.67;;;1.30;;
2874;SDS011;1445;52.600;13.328;2023-03-05T16:51:10;4.20;;;2.03;;
2874;SDS011;1445;52.600;13.328;2023-03-05T16:53:36;2.20;;;1.20;;
2874;SDS011;1445;52.600;13.328;2023-03-05T16:56:03;4.72;;;1.55;;
2874;SDS011;1445;52.600;13.328;2023-03-05T16:58:29;4.75;;;1.35;;
2874;SDS011;1445;52.600;13.328;2023-03-05T17:00:55;4.00;;;1.73;;